sensor_id;sensor_type;location;lat;lon;timestamp;temperature;humidity
74792;SHT30;63319;46.046;17.802;2024-03-29T00:01:26;9.07;82.54
74792;SHT30;63319;46.046;17.802;2024-03-29T00:04:28;9.24;82.83
74792;SHT30;63319;46.046;17.802;2024-03-29T00:07:31;9.02;82.76
74792;SHT30;63319;46.046;17.802;2024-03-29T00:10:33;9.03;82.23
74792;SHT30;63319;46.046;17.802;2024-03-29T00:13:35;8.90;83.09
74792;SHT30;63319;46.046;17.802;2024-03-29T00:16:37;8.90;83.01
74792;SHT30;63319;46.046;17.802;2024-03-29T00:19:39;8.86;82.82
74792;SHT30;63319;46.046;17.802;2024-03-29T00:22:41;8.94;82.72
74792;SHT30;63319;46.046;17.802;2024-03-29T00:25:43;8.89;83.51
74792;SHT30;63319;46.046;17.802;2024-03-29T00:28:45;9.30;81.98
74792;SHT30;63319;46.046;17.802;2024-03-29T00:31:47;9.19;82.26
74792;SHT30;63319;46.046;17.802;2024-03-29T00:34:50;9.23;82.33
74792;SHT30;63319;46.046;17.802;2024-03-29T00:37:52;9.20;81.94
74792;SHT30;63319;46.046;17.802;2024-03-29T00:40:55;9.34;82.41
74792;SHT30;63319;46.046;17.802;2024-03-29T00:43:56;9.33;81.07
74792;SHT30;63319;46.046;17.802;2024-03-29T00:46:58;9.81;79.81
74792;SHT30;63319;46.046;17.802;2024-03-29T00:50:00;9.10;81.06
74792;SHT30;63319;46.046;17.802;2024-03-29T00:53:04;9.20;80.62
74792;SHT30;63319;46.046;17.802;2024-03-29T00:56:06;9.55;80.10
74792;SHT30;63319;46.046;17.802;2024-03-29T00:59:07;9.52;80.38
74792;SHT30;63319;46.046;17.802;2024-03-29T01:02:10;9.38;80.67
74792;SHT30;63319;46.046;17.802;2024-03-29T01:05:12;9.67;79.23
74792;SHT30;63319;46.046;17.802;2024-03-29T01:08:14;10.26;77.58
74792;SHT30;63319;46.046;17.802;2024-03-29T01:11:16;9.83;78.68
74792;SHT30;63319;46.046;17.802;2024-03-29T01:14:18;9.24;81.34
74792;SHT30;63319;46.046;17.802;2024-03-29T01:17:20;9.89;78.88
74792;SHT30;63319;46.046;17.802;2024-03-29T01:20:22;9.50;80.92
74792;SHT30;63319;46.046;17.802;2024-03-29T01:23:24;9.54;80.99
74792;SHT30;63319;46.046;17.802;2024-03-29T01:26:26;9.58;81.14
74792;SHT30;63319;46.046;17.802;2024-03-29T01:29:28;9.72;80.81
74792;SHT30;63319;46.046;17.802;2024-03-29T01:32:30;9.47;80.65
74792;SHT30;63319;46.046;17.802;2024-03-29T01:35:32;9.24;82.31
74792;SHT30;63319;46.046;17.802;2024-03-29T01:38:34;9.12;82.65
74792;SHT30;63319;46.046;17.802;2024-03-29T01:41:36;9.21;81.72
74792;SHT30;63319;46.046;17.802;2024-03-29T01:44:38;9.10;82.65
74792;SHT30;63319;46.046;17.802;2024-03-29T01:47:40;9.13;81.53
74792;SHT30;63319;46.046;17.802;2024-03-29T01:50:42;8.99;82.14
74792;SHT30;63319;46.046;17.802;2024-03-29T01:53:45;9.26;81.63
74792;SHT30;63319;46.046;17.802;2024-03-29T01:56:48;9.12;80.68
74792;SHT30;63319;46.046;17.802;2024-03-29T01:59:51;8.80;82.24
74792;SHT30;63319;46.046;17.802;2024-03-29T02:02:53;8.79;83.22
74792;SHT30;63319;46.046;17.802;2024-03-29T02:05:55;8.94;82.41
74792;SHT30;63319;46.046;17.802;2024-03-29T02:08:59;9.00;81.37
74792;SHT30;63319;46.046;17.802;2024-03-29T02:12:01;8.92;81.03
74792;SHT30;63319;46.046;17.802;2024-03-29T02:15:03;8.65;82.34
74792;SHT30;63319;46.046;17.802;2024-03-29T02:18:06;9.09;82.48
74792;SHT30;63319;46.046;17.802;2024-03-29T02:21:08;8.76;82.50
74792;SHT30;63319;46.046;17.802;2024-03-29T02:24:10;9.14;82.52
74792;SHT30;63319;46.046;17.802;2024-03-29T02:27:14;8.92;82.56
74792;SHT30;63319;46.046;17.802;2024-03-29T02:30:16;9.30;81.15
74792;SHT30;63319;46.046;17.802;2024-03-29T02:33:21;8.76;83.19
74792;SHT30;63319;46.046;17.802;2024-03-29T02:36:22;8.92;83.38
74792;SHT30;63319;46.046;17.802;2024-03-29T02:39:25;8.79;82.04
74792;SHT30;63319;46.046;17.802;2024-03-29T02:42:26;8.62;82.44
74792;SHT30;63319;46.046;17.802;2024-03-29T02:45:28;8.94;82.46
74792;SHT30;63319;46.046;17.802;2024-03-29T02:48:30;8.92;82.13
74792;SHT30;63319;46.046;17.802;2024-03-29T02:51:32;8.55;83.74
74792;SHT30;63319;46.046;17.802;2024-03-29T02:54:35;8.69;82.47
74792;SHT30;63319;46.046;17.802;2024-03-29T02:57:37;8.72;83.10
74792;SHT30;63319;46.046;17.802;2024-03-29T03:00:39;8.49;83.67
74792;SHT30;63319;46.046;17.802;2024-03-29T03:03:41;8.20;85.40
74792;SHT30;63319;46.046;17.802;2024-03-29T03:06:43;8.17;85.33
74792;SHT30;63319;46.046;17.802;2024-03-29T03:09:45;8.55;83.08
74792;SHT30;63319;46.046;17.802;2024-03-29T03:13:05;8.65;83.15
74792;SHT30;63319;46.046;17.802;2024-03-29T03:16:07;8.27;83.87
74792;SHT30;63319;46.046;17.802;2024-03-29T03:19:09;8.21;84.01
74792;SHT30;63319;46.046;17.802;2024-03-29T03:22:11;8.10;84.69
74792;SHT30;63319;46.046;17.802;2024-03-29T03:25:14;7.80;85.89
74792;SHT30;63319;46.046;17.802;2024-03-29T03:28:15;7.83;85.87
74792;SHT30;63319;46.046;17.802;2024-03-29T03:31:17;7.96;85.45
74792;SHT30;63319;46.046;17.802;2024-03-29T03:34:19;8.01;84.89
74792;SHT30;63319;46.046;17.802;2024-03-29T03:37:21;7.86;85.62
74792;SHT30;63319;46.046;17.802;2024-03-29T03:40:24;7.89;86.88
74792;SHT30;63319;46.046;17.802;2024-03-29T03:43:27;7.98;85.59
74792;SHT30;63319;46.046;17.802;2024-03-29T03:46:29;8.18;84.33
74792;SHT30;63319;46.046;17.802;2024-03-29T03:49:31;8.04;85.02
74792;SHT30;63319;46.046;17.802;2024-03-29T03:52:33;8.04;85.28
74792;SHT30;63319;46.046;17.802;2024-03-29T03:55:36;8.16;84.60
74792;SHT30;63319;46.046;17.802;2024-03-29T03:58:38;8.00;84.69
74792;SHT30;63319;46.046;17.802;2024-03-29T04:01:41;7.97;85.28
74792;SHT30;63319;46.046;17.802;2024-03-29T04:04:47;7.97;84.80
74792;SHT30;63319;46.046;17.802;2024-03-29T04:07:49;7.96;85.42
74792;SHT30;63319;46.046;17.802;2024-03-29T04:10:51;8.24;84.90
74792;SHT30;63319;46.046;17.802;2024-03-29T04:13:53;7.72;86.17
74792;SHT30;63319;46.046;17.802;2024-03-29T04:16:55;7.51;86.81
74792;SHT30;63319;46.046;17.802;2024-03-29T04:19:57;7.59;87.58
74792;SHT30;63319;46.046;17.802;2024-03-29T04:22:59;7.70;87.31
74792;SHT30;63319;46.046;17.802;2024-03-29T04:26:01;7.75;85.97
74792;SHT30;63319;46.046;17.802;2024-03-29T04:29:03;7.62;86.34
74792;SHT30;63319;46.046;17.802;2024-03-29T04:32:06;7.62;86.38
74792;SHT30;63319;46.046;17.802;2024-03-29T04:35:08;7.61;86.78
74792;SHT30;63319;46.046;17.802;2024-03-29T04:38:10;7.76;85.11
74792;SHT30;63319;46.046;17.802;2024-03-29T04:41:12;7.86;85.34
74792;SHT30;63319;46.046;17.802;2024-03-29T04:44:23;7.65;86.16
74792;SHT30;63319;46.046;17.802;2024-03-29T04:47:26;7.80;85.16
74792;SHT30;63319;46.046;17.802;2024-03-29T04:50:28;7.83;85.12
74792;SHT30;63319;46.046;17.802;2024-03-29T04:53:30;7.72;85.57
74792;SHT30;63319;46.046;17.802;2024-03-29T04:56:32;7.67;85.82
74792;SHT30;63319;46.046;17.802;2024-03-29T04:59:34;7.61;86.03
74792;SHT30;63319;46.046;17.802;2024-03-29T05:02:36;7.82;84.88
74792;SHT30;63319;46.046;17.802;2024-03-29T05:05:39;7.76;84.90
74792;SHT30;63319;46.046;17.802;2024-03-29T05:08:41;7.86;85.05
74792;SHT30;63319;46.046;17.802;2024-03-29T05:11:43;7.85;84.91
74792;SHT30;63319;46.046;17.802;2024-03-29T05:14:45;7.77;85.43
74792;SHT30;63319;46.046;17.802;2024-03-29T05:17:47;7.86;84.85
74792;SHT30;63319;46.046;17.802;2024-03-29T05:20:49;8.01;84.32
74792;SHT30;63319;46.046;17.802;2024-03-29T05:23:52;8.33;83.58
74792;SHT30;63319;46.046;17.802;2024-03-29T05:26:55;8.30;83.22
74792;SHT30;63319;46.046;17.802;2024-03-29T05:29:57;8.44;83.19
74792;SHT30;63319;46.046;17.802;2024-03-29T05:32:59;8.62;82.21
74792;SHT30;63319;46.046;17.802;2024-03-29T05:36:01;8.68;82.18
74792;SHT30;63319;46.046;17.802;2024-03-29T05:39:06;8.89;81.37
74792;SHT30;63319;46.046;17.802;2024-03-29T05:42:08;9.14;81.30
74792;SHT30;63319;46.046;17.802;2024-03-29T05:45:26;9.13;80.61
74792;SHT30;63319;46.046;17.802;2024-03-29T05:48:29;9.31;80.18
74792;SHT30;63319;46.046;17.802;2024-03-29T05:51:31;9.77;79.16
74792;SHT30;63319;46.046;17.802;2024-03-29T05:54:33;11.70;73.84
74792;SHT30;63319;46.046;17.802;2024-03-29T05:57:35;12.88;68.33
74792;SHT30;63319;46.046;17.802;2024-03-29T06:00:45;13.07;66.83
74792;SHT30;63319;46.046;17.802;2024-03-29T06:03:47;14.81;61.09
74792;SHT30;63319;46.046;17.802;2024-03-29T06:06:49;14.45;60.94
74792;SHT30;63319;46.046;17.802;2024-03-29T06:09:51;14.48;61.57
74792;SHT30;63319;46.046;17.802;2024-03-29T06:12:53;15.14;59.29
74792;SHT30;63319;46.046;17.802;2024-03-29T06:15:55;15.82;57.85
74792;SHT30;63319;46.046;17.802;2024-03-29T06:19:15;16.08;57.03
74792;SHT30;63319;46.046;17.802;2024-03-29T06:22:18;16.65;55.17
74792;SHT30;63319;46.046;17.802;2024-03-29T06:25:19;16.84;54.56
74792;SHT30;63319;46.046;17.802;2024-03-29T06:28:21;17.23;53.68
74792;SHT30;63319;46.046;17.802;2024-03-29T06:31:23;17.47;52.75
74792;SHT30;63319;46.046;17.802;2024-03-29T06:34:25;17.52;52.77
74792;SHT30;63319;46.046;17.802;2024-03-29T06:37:27;15.82;57.54
74792;SHT30;63319;46.046;17.802;2024-03-29T06:40:31;14.48;62.51
74792;SHT30;63319;46.046;17.802;2024-03-29T06:43:32;13.69;64.89
74792;SHT30;63319;46.046;17.802;2024-03-29T06:46:34;13.96;65.58
74792;SHT30;63319;46.046;17.802;2024-03-29T06:49:36;14.41;62.05
74792;SHT30;63319;46.046;17.802;2024-03-29T06:52:38;17.16;55.02
74792;SHT30;63319;46.046;17.802;2024-03-29T06:55:41;18.02;52.76
74792;SHT30;63319;46.046;17.802;2024-03-29T06:58:43;18.49;51.10
74792;SHT30;63319;46.046;17.802;2024-03-29T07:01:45;18.48;50.39
74792;SHT30;63319;46.046;17.802;2024-03-29T07:04:49;20.21;47.61
74792;SHT30;63319;46.046;17.802;2024-03-29T07:07:51;18.17;50.83
74792;SHT30;63319;46.046;17.802;2024-03-29T07:10:59;16.59;55.22
74792;SHT30;63319;46.046;17.802;2024-03-29T07:14:01;15.57;58.08
74792;SHT30;63319;46.046;17.802;2024-03-29T07:17:04;16.47;56.41
74792;SHT30;63319;46.046;17.802;2024-03-29T07:20:06;17.07;54.75
74792;SHT30;63319;46.046;17.802;2024-03-29T07:23:10;18.90;50.03
74792;SHT30;63319;46.046;17.802;2024-03-29T07:26:16;21.06;44.80
74792;SHT30;63319;46.046;17.802;2024-03-29T07:29:18;20.68;44.53
74792;SHT30;63319;46.046;17.802;2024-03-29T07:32:19;19.21;47.83
74792;SHT30;63319;46.046;17.802;2024-03-29T07:35:22;20.92;45.29
74792;SHT30;63319;46.046;17.802;2024-03-29T07:38:23;21.80;41.98
74792;SHT30;63319;46.046;17.802;2024-03-29T07:41:25;23.31;39.57
74792;SHT30;63319;46.046;17.802;2024-03-29T07:44:27;23.49;39.99
74792;SHT30;63319;46.046;17.802;2024-03-29T07:47:29;24.06;37.54
74792;SHT30;63319;46.046;17.802;2024-03-29T07:50:31;24.67;36.26
74792;SHT30;63319;46.046;17.802;2024-03-29T07:53:33;24.76;36.78
74792;SHT30;63319;46.046;17.802;2024-03-29T07:56:35;24.13;37.45
74792;SHT30;63319;46.046;17.802;2024-03-29T07:59:37;22.84;39.37
74792;SHT30;63319;46.046;17.802;2024-03-29T08:02:39;21.27;42.23
74792;SHT30;63319;46.046;17.802;2024-03-29T08:05:42;22.12;40.59
74792;SHT30;63319;46.046;17.802;2024-03-29T08:08:44;21.23;42.52
74792;SHT30;63319;46.046;17.802;2024-03-29T08:11:46;20.31;44.82
74792;SHT30;63319;46.046;17.802;2024-03-29T08:14:48;22.16;40.97
74792;SHT30;63319;46.046;17.802;2024-03-29T08:17:50;23.67;38.57
74792;SHT30;63319;46.046;17.802;2024-03-29T08:20:52;25.37;36.29
74792;SHT30;63319;46.046;17.802;2024-03-29T08:23:56;24.85;36.34
74792;SHT30;63319;46.046;17.802;2024-03-29T08:26:59;25.48;35.77
74792;SHT30;63319;46.046;17.802;2024-03-29T08:30:03;25.54;36.02
74792;SHT30;63319;46.046;17.802;2024-03-29T08:33:05;25.68;35.33
74792;SHT30;63319;46.046;17.802;2024-03-29T08:36:07;26.14;34.64
74792;SHT30;63319;46.046;17.802;2024-03-29T08:39:10;25.77;34.70
74792;SHT30;63319;46.046;17.802;2024-03-29T08:42:12;26.14;34.37
74792;SHT30;63319;46.046;17.802;2024-03-29T08:45:15;27.59;32.68
74792;SHT30;63319;46.046;17.802;2024-03-29T08:48:16;27.52;32.39
74792;SHT30;63319;46.046;17.802;2024-03-29T08:51:18;27.18;32.09
74792;SHT30;63319;46.046;17.802;2024-03-29T08:54:21;27.38;31.99
74792;SHT30;63319;46.046;17.802;2024-03-29T08:57:22;26.52;34.00
74792;SHT30;63319;46.046;17.802;2024-03-29T09:00:26;24.58;37.39
74792;SHT30;63319;46.046;17.802;2024-03-29T09:03:28;22.94;39.72
74792;SHT30;63319;46.046;17.802;2024-03-29T09:06:30;24.20;39.06
74792;SHT30;63319;46.046;17.802;2024-03-29T09:09:32;24.91;37.25
74792;SHT30;63319;46.046;17.802;2024-03-29T09:12:34;24.89;36.96
74792;SHT30;63319;46.046;17.802;2024-03-29T09:15:37;25.82;35.51
74792;SHT30;63319;46.046;17.802;2024-03-29T09:18:39;27.67;33.18
74792;SHT30;63319;46.046;17.802;2024-03-29T09:21:41;26.63;34.80
74792;SHT30;63319;46.046;17.802;2024-03-29T09:24:43;25.96;34.84
74792;SHT30;63319;46.046;17.802;2024-03-29T09:27:45;24.38;38.14
74792;SHT30;63319;46.046;17.802;2024-03-29T09:30:49;25.05;37.65
74792;SHT30;63319;46.046;17.802;2024-03-29T09:33:51;26.12;36.45
74792;SHT30;63319;46.046;17.802;2024-03-29T09:36:59;26.12;36.27
74792;SHT30;63319;46.046;17.802;2024-03-29T09:40:02;27.24;34.06
74792;SHT30;63319;46.046;17.802;2024-03-29T09:43:04;27.83;33.00
74792;SHT30;63319;46.046;17.802;2024-03-29T09:46:08;28.68;31.97
74792;SHT30;63319;46.046;17.802;2024-03-29T09:49:10;29.46;31.02
74792;SHT30;63319;46.046;17.802;2024-03-29T09:52:13;28.59;32.47
74792;SHT30;63319;46.046;17.802;2024-03-29T09:55:16;28.95;32.30
74792;SHT30;63319;46.046;17.802;2024-03-29T09:58:21;29.60;30.15
74792;SHT30;63319;46.046;17.802;2024-03-29T10:01:23;29.38;31.31
74792;SHT30;63319;46.046;17.802;2024-03-29T10:04:27;28.93;31.34
74792;SHT30;63319;46.046;17.802;2024-03-29T10:07:30;29.64;30.79
74792;SHT30;63319;46.046;17.802;2024-03-29T10:10:33;29.81;31.16
74792;SHT30;63319;46.046;17.802;2024-03-29T10:13:35;29.60;30.96
74792;SHT30;63319;46.046;17.802;2024-03-29T10:16:38;29.95;30.78
74792;SHT30;63319;46.046;17.802;2024-03-29T10:19:40;29.16;31.82
74792;SHT30;63319;46.046;17.802;2024-03-29T10:22:42;27.43;34.23
74792;SHT30;63319;46.046;17.802;2024-03-29T10:25:46;27.69;34.35
74792;SHT30;63319;46.046;17.802;2024-03-29T10:28:48;27.50;34.30
74792;SHT30;63319;46.046;17.802;2024-03-29T10:31:51;26.43;36.27
74792;SHT30;63319;46.046;17.802;2024-03-29T10:34:53;26.16;36.81
74792;SHT30;63319;46.046;17.802;2024-03-29T10:37:55;25.09;38.77
74792;SHT30;63319;46.046;17.802;2024-03-29T10:40:57;25.19;38.11
74792;SHT30;63319;46.046;17.802;2024-03-29T10:44:02;24.37;40.19
74792;SHT30;63319;46.046;17.802;2024-03-29T10:47:06;23.97;40.60
74792;SHT30;63319;46.046;17.802;2024-03-29T10:50:10;23.72;41.36
74792;SHT30;63319;46.046;17.802;2024-03-29T10:53:13;23.85;41.20
74792;SHT30;63319;46.046;17.802;2024-03-29T10:56:19;23.75;40.83
74792;SHT30;63319;46.046;17.802;2024-03-29T10:59:29;23.35;41.46
74792;SHT30;63319;46.046;17.802;2024-03-29T11:02:57;23.29;41.67
74792;SHT30;63319;46.046;17.802;2024-03-29T11:06:05;23.32;42.48
74792;SHT30;63319;46.046;17.802;2024-03-29T11:09:10;23.58;40.67
74792;SHT30;63319;46.046;17.802;2024-03-29T11:12:16;23.22;41.97
74792;SHT30;63319;46.046;17.802;2024-03-29T11:15:26;23.25;42.20
74792;SHT30;63319;46.046;17.802;2024-03-29T11:18:29;23.56;41.01
74792;SHT30;63319;46.046;17.802;2024-03-29T11:21:32;23.67;41.53
74792;SHT30;63319;46.046;17.802;2024-03-29T11:24:34;23.55;41.43
74792;SHT30;63319;46.046;17.802;2024-03-29T11:27:36;23.46;41.79
74792;SHT30;63319;46.046;17.802;2024-03-29T11:30:48;23.66;42.29
74792;SHT30;63319;46.046;17.802;2024-03-29T11:33:51;23.93;42.31
74792;SHT30;63319;46.046;17.802;2024-03-29T11:36:55;23.87;41.99
74792;SHT30;63319;46.046;17.802;2024-03-29T11:39:59;23.19;43.12
74792;SHT30;63319;46.046;17.802;2024-03-29T11:43:02;22.94;45.07
74792;SHT30;63319;46.046;17.802;2024-03-29T11:46:08;22.81;45.01
74792;SHT30;63319;46.046;17.802;2024-03-29T11:49:10;22.98;45.33
74792;SHT30;63319;46.046;17.802;2024-03-29T11:52:12;22.91;45.36
74792;SHT30;63319;46.046;17.802;2024-03-29T11:55:15;23.10;44.66
74792;SHT30;63319;46.046;17.802;2024-03-29T11:58:16;23.34;42.43
74792;SHT30;63319;46.046;17.802;2024-03-29T12:01:18;23.66;42.65
74792;SHT30;63319;46.046;17.802;2024-03-29T12:04:21;24.00;41.20
74792;SHT30;63319;46.046;17.802;2024-03-29T12:07:24;23.80;41.60
74792;SHT30;63319;46.046;17.802;2024-03-29T12:10:29;23.90;41.39
74792;SHT30;63319;46.046;17.802;2024-03-29T12:13:32;24.21;41.01
74792;SHT30;63319;46.046;17.802;2024-03-29T12:16:45;23.42;41.79
74792;SHT30;63319;46.046;17.802;2024-03-29T12:19:47;23.12;42.83
74792;SHT30;63319;46.046;17.802;2024-03-29T12:22:49;22.93;43.12
74792;SHT30;63319;46.046;17.802;2024-03-29T12:25:54;22.80;43.52
74792;SHT30;63319;46.046;17.802;2024-03-29T12:28:59;22.91;43.00
74792;SHT30;63319;46.046;17.802;2024-03-29T12:32:02;22.83;42.94
74792;SHT30;63319;46.046;17.802;2024-03-29T12:35:10;22.84;42.37
74792;SHT30;63319;46.046;17.802;2024-03-29T12:38:14;23.19;41.99
74792;SHT30;63319;46.046;17.802;2024-03-29T12:41:16;23.45;42.17
74792;SHT30;63319;46.046;17.802;2024-03-29T12:44:18;23.35;42.30
74792;SHT30;63319;46.046;17.802;2024-03-29T12:47:20;23.37;41.74
74792;SHT30;63319;46.046;17.802;2024-03-29T12:53:24;23.32;41.89
74792;SHT30;63319;46.046;17.802;2024-03-29T12:56:27;23.44;42.33
74792;SHT30;63319;46.046;17.802;2024-03-29T12:59:29;23.62;41.30
74792;SHT30;63319;46.046;17.802;2024-03-29T13:02:30;23.63;41.98
74792;SHT30;63319;46.046;17.802;2024-03-29T13:05:34;23.87;41.49
74792;SHT30;63319;46.046;17.802;2024-03-29T13:08:37;23.86;41.76
74792;SHT30;63319;46.046;17.802;2024-03-29T13:11:39;23.70;42.63
74792;SHT30;63319;46.046;17.802;2024-03-29T13:14:42;23.41;42.89
74792;SHT30;63319;46.046;17.802;2024-03-29T13:17:46;23.24;43.04
74792;SHT30;63319;46.046;17.802;2024-03-29T13:20:48;23.24;42.98
74792;SHT30;63319;46.046;17.802;2024-03-29T13:23:50;23.01;43.89
74792;SHT30;63319;46.046;17.802;2024-03-29T13:26:52;23.11;44.31
74792;SHT30;63319;46.046;17.802;2024-03-29T13:29:54;22.93;44.38
74792;SHT30;63319;46.046;17.802;2024-03-29T13:32:56;23.11;43.72
74792;SHT30;63319;46.046;17.802;2024-03-29T13:35:58;22.86;44.77
74792;SHT30;63319;46.046;17.802;2024-03-29T13:39:00;22.83;45.21
74792;SHT30;63319;46.046;17.802;2024-03-29T13:42:02;22.69;45.50
74792;SHT30;63319;46.046;17.802;2024-03-29T13:45:05;22.41;46.73
74792;SHT30;63319;46.046;17.802;2024-03-29T13:48:07;22.56;44.83
74792;SHT30;63319;46.046;17.802;2024-03-29T13:51:09;22.32;45.72
74792;SHT30;63319;46.046;17.802;2024-03-29T13:54:11;22.39;45.17
74792;SHT30;63319;46.046;17.802;2024-03-29T13:57:14;22.32;45.31
74792;SHT30;63319;46.046;17.802;2024-03-29T14:00:16;22.26;45.12
74792;SHT30;63319;46.046;17.802;2024-03-29T14:03:20;22.13;45.11
74792;SHT30;63319;46.046;17.802;2024-03-29T14:06:23;21.85;45.37
74792;SHT30;63319;46.046;17.802;2024-03-29T14:09:25;21.81;45.07
74792;SHT30;63319;46.046;17.802;2024-03-29T14:12:28;21.77;45.50
74792;SHT30;63319;46.046;17.802;2024-03-29T14:15:29;21.85;45.34
74792;SHT30;63319;46.046;17.802;2024-03-29T14:18:31;21.78;44.58
74792;SHT30;63319;46.046;17.802;2024-03-29T14:21:33;21.88;43.80
74792;SHT30;63319;46.046;17.802;2024-03-29T14:24:35;21.80;44.49
74792;SHT30;63319;46.046;17.802;2024-03-29T14:27:37;21.84;45.16
74792;SHT30;63319;46.046;17.802;2024-03-29T14:30:48;21.68;45.52
74792;SHT30;63319;46.046;17.802;2024-03-29T14:33:49;21.73;44.94
74792;SHT30;63319;46.046;17.802;2024-03-29T14:36:52;21.83;44.85
74792;SHT30;63319;46.046;17.802;2024-03-29T14:39:53;21.81;44.97
74792;SHT30;63319;46.046;17.802;2024-03-29T14:42:55;21.87;45.15
74792;SHT30;63319;46.046;17.802;2024-03-29T14:45:59;21.94;45.23
74792;SHT30;63319;46.046;17.802;2024-03-29T14:49:02;21.92;45.38
74792;SHT30;63319;46.046;17.802;2024-03-29T14:52:06;21.81;45.72
74792;SHT30;63319;46.046;17.802;2024-03-29T14:55:08;21.84;45.84
74792;SHT30;63319;46.046;17.802;2024-03-29T14:58:10;21.88;46.01
74792;SHT30;63319;46.046;17.802;2024-03-29T15:01:12;21.74;46.78
74792;SHT30;63319;46.046;17.802;2024-03-29T15:04:14;21.75;46.76
74792;SHT30;63319;46.046;17.802;2024-03-29T15:07:16;21.56;47.72
74792;SHT30;63319;46.046;17.802;2024-03-29T15:10:18;21.64;47.43
74792;SHT30;63319;46.046;17.802;2024-03-29T15:13:21;21.56;47.76
74792;SHT30;63319;46.046;17.802;2024-03-29T15:16:22;21.51;47.97
74792;SHT30;63319;46.046;17.802;2024-03-29T15:19:28;21.54;47.56
74792;SHT30;63319;46.046;17.802;2024-03-29T15:22:31;21.50;47.57
74792;SHT30;63319;46.046;17.802;2024-03-29T15:25:34;21.53;47.88
74792;SHT30;63319;46.046;17.802;2024-03-29T15:28:36;21.47;48.16
74792;SHT30;63319;46.046;17.802;2024-03-29T15:31:57;21.32;49.05
74792;SHT30;63319;46.046;17.802;2024-03-29T15:34:59;21.35;48.71
74792;SHT30;63319;46.046;17.802;2024-03-29T15:38:01;21.32;49.03
74792;SHT30;63319;46.046;17.802;2024-03-29T15:41:05;21.25;49.49
74792;SHT30;63319;46.046;17.802;2024-03-29T15:44:09;21.29;49.61
74792;SHT30;63319;46.046;17.802;2024-03-29T15:47:10;21.16;49.89
74792;SHT30;63319;46.046;17.802;2024-03-29T15:50:14;21.08;50.01
74792;SHT30;63319;46.046;17.802;2024-03-29T15:53:17;21.08;49.72
74792;SHT30;63319;46.046;17.802;2024-03-29T15:56:19;20.89;50.31
74792;SHT30;63319;46.046;17.802;2024-03-29T15:59:23;20.61;51.54
74792;SHT30;63319;46.046;17.802;2024-03-29T16:02:25;20.78;50.72
74792;SHT30;63319;46.046;17.802;2024-03-29T16:05:27;20.72;50.95
74792;SHT30;63319;46.046;17.802;2024-03-29T16:08:30;20.71;50.24
74792;SHT30;63319;46.046;17.802;2024-03-29T16:11:35;20.63;50.30
74792;SHT30;63319;46.046;17.802;2024-03-29T16:14:40;20.63;50.27
74792;SHT30;63319;46.046;17.802;2024-03-29T16:17:42;20.58;50.46
74792;SHT30;63319;46.046;17.802;2024-03-29T16:20:44;20.41;50.74
74792;SHT30;63319;46.046;17.802;2024-03-29T16:23:46;20.37;51.27
74792;SHT30;63319;46.046;17.802;2024-03-29T16:26:47;20.21;51.95
74792;SHT30;63319;46.046;17.802;2024-03-29T16:29:49;20.08;52.34
74792;SHT30;63319;46.046;17.802;2024-03-29T16:32:51;19.79;53.12
74792;SHT30;63319;46.046;17.802;2024-03-29T16:35:53;19.72;53.24
74792;SHT30;63319;46.046;17.802;2024-03-29T16:38:55;19.63;53.06
74792;SHT30;63319;46.046;17.802;2024-03-29T16:41:57;19.50;53.29
74792;SHT30;63319;46.046;17.802;2024-03-29T16:45:00;19.57;52.63
74792;SHT30;63319;46.046;17.802;2024-03-29T16:48:01;19.30;53.17
74792;SHT30;63319;46.046;17.802;2024-03-29T16:51:03;19.15;53.50
74792;SHT30;63319;46.046;17.802;2024-03-29T16:54:07;19.23;53.09
74792;SHT30;63319;46.046;17.802;2024-03-29T16:57:09;19.21;53.31
74792;SHT30;63319;46.046;17.802;2024-03-29T17:00:11;19.18;53.16
74792;SHT30;63319;46.046;17.802;2024-03-29T17:03:13;18.87;53.87
74792;SHT30;63319;46.046;17.802;2024-03-29T17:06:15;18.75;54.20
74792;SHT30;63319;46.046;17.802;2024-03-29T17:09:38;18.76;54.10
74792;SHT30;63319;46.046;17.802;2024-03-29T17:12:41;18.56;54.44
74792;SHT30;63319;46.046;17.802;2024-03-29T17:15:42;18.38;54.55
74792;SHT30;63319;46.046;17.802;2024-03-29T17:18:46;18.52;54.10
74792;SHT30;63319;46.046;17.802;2024-03-29T17:21:48;18.65;53.55
74792;SHT30;63319;46.046;17.802;2024-03-29T17:24:50;18.51;53.49
74792;SHT30;63319;46.046;17.802;2024-03-29T17:27:52;18.32;54.23
74792;SHT30;63319;46.046;17.802;2024-03-29T17:30:54;18.31;53.76
74792;SHT30;63319;46.046;17.802;2024-03-29T17:33:56;18.21;54.03
74792;SHT30;63319;46.046;17.802;2024-03-29T17:36:59;18.12;53.82
74792;SHT30;63319;46.046;17.802;2024-03-29T17:40:01;18.00;54.30
74792;SHT30;63319;46.046;17.802;2024-03-29T17:43:03;17.84;54.89
74792;SHT30;63319;46.046;17.802;2024-03-29T17:46:04;17.50;58.04
74792;SHT30;63319;46.046;17.802;2024-03-29T17:49:07;17.25;57.74
74792;SHT30;63319;46.046;17.802;2024-03-29T17:52:11;17.79;55.44
74792;SHT30;63319;46.046;17.802;2024-03-29T17:55:14;17.86;54.74
74792;SHT30;63319;46.046;17.802;2024-03-29T17:58:16;17.74;55.02
74792;SHT30;63319;46.046;17.802;2024-03-29T18:01:18;17.77;55.30
74792;SHT30;63319;46.046;17.802;2024-03-29T18:04:19;17.80;54.31
74792;SHT30;63319;46.046;17.802;2024-03-29T18:07:21;17.81;54.47
74792;SHT30;63319;46.046;17.802;2024-03-29T18:10:23;17.73;54.82
74792;SHT30;63319;46.046;17.802;2024-03-29T18:13:25;17.73;54.49
74792;SHT30;63319;46.046;17.802;2024-03-29T18:16:27;17.98;53.72
74792;SHT30;63319;46.046;17.802;2024-03-29T18:19:29;17.96;53.64
74792;SHT30;63319;46.046;17.802;2024-03-29T18:22:31;17.91;53.47
74792;SHT30;63319;46.046;17.802;2024-03-29T18:25:34;17.90;53.99
74792;SHT30;63319;46.046;17.802;2024-03-29T18:28:36;17.84;53.88
74792;SHT30;63319;46.046;17.802;2024-03-29T18:31:38;17.87;53.89
74792;SHT30;63319;46.046;17.802;2024-03-29T18:34:40;17.96;53.34
74792;SHT30;63319;46.046;17.802;2024-03-29T18:37:42;17.98;53.47
74792;SHT30;63319;46.046;17.802;2024-03-29T18:40:44;17.73;54.34
74792;SHT30;63319;46.046;17.802;2024-03-29T18:43:45;17.80;53.96
74792;SHT30;63319;46.046;17.802;2024-03-29T18:46:47;17.96;53.40
74792;SHT30;63319;46.046;17.802;2024-03-29T18:49:49;17.91;53.38
74792;SHT30;63319;46.046;17.802;2024-03-29T18:52:51;17.89;53.69
74792;SHT30;63319;46.046;17.802;2024-03-29T18:56:00;17.70;54.35
74792;SHT30;63319;46.046;17.802;2024-03-29T18:59:02;17.45;55.12
74792;SHT30;63319;46.046;17.802;2024-03-29T19:02:06;17.29;55.39
74792;SHT30;63319;46.046;17.802;2024-03-29T19:05:08;17.07;55.81